Time;durP1;ratioP1;P1;durP2;ratioP2;P2;SDS_P1;SDS_P2;PMS_P1;PMS_P2;Temp;Humidity;BMP_temperature;BMP_pressure;BME280_temperature;BME280_humidity;BME280_pressure;Samples;Min_cycle;Max_cycle;Signal;HPM_P1;HPM_P2
2023/04/22 00:01:57;;;;;;;;;;;;;;;;;;5019262;28;20478;-67
2023/04/22 00:04:23;;;;;;;;;;;;;;;;;;5021042;28;19921;-67
2023/04/22 00:06:49;;;;;;;;;;;;;;;;;;5016295;28;20004;-67
2023/04/22 00:09:14;;;;;;;;;;;;;;;;;;5019913;28;19967;-68
2023/04/22 00:11:40;;;;;;;;;;;;;;;;;;5022398;28;19967;-68
2023/04/22 00:14:06;;;;;;;;;;;;;;;;;;5020780;28;19924;-68
2023/04/22 00:16:33;;;;;;;;;;;;;;;;;;5019709;28;20014;-68
2023/04/22 00:19:01;;;;;;;;;;;;;;;;;;5037939;28;19938;-69
2023/04/22 00:21:32;;;;;;;;;;;;;;;;;;5018837;28;19932;-68
2023/04/22 00:26:52;;;;;;;;;;;;;;;;;;5026619;28;19952;-69
2023/04/22 00:29:17;;;;;;;;;;;;;;;;;;5027011;28;20391;-68
2023/04/22 00:31:46;;;;;;;;;;;;;;;;;;5027098;28;20908;-67
2023/04/22 00:34:16;;;;;;;;;;;;;;;;;;5025294;28;20277;-67
2023/04/22 00:36:41;;;;;;;;;;;;;;;;;;5025851;28;20031;-68
2023/04/22 00:39:10;;;;;;;;;;;;;;;;;;5022776;28;19920;-67
2023/04/22 00:41:38;;;;;;;;;;;;;;;;;;5008294;28;19944;-67
2023/04/22 00:44:03;;;;;;;;;;;;;;;;;;5041313;28;19928;-67
2023/04/22 00:46:31;;;;;;;;;;;;;;;;;;5040059;28;20042;-66
2023/04/22 00:48:57;;;;;;;;;;;;;;;;;;5021229;28;21756;-67
2023/04/22 00:51:25;;;;;;;;;;;;;;;;;;5038355;28;19993;-67
2023/04/22 00:53:50;;;;;;;;;;;;;;;;;;5022654;28;19925;-67
2023/04/22 00:56:16;;;;;;;;;;;;;;;;;;5022546;28;19960;-67
2023/04/22 00:58:41;;;;;;;;;;;;;;;;;;5041103;28;19927;-67
2023/04/22 01:01:06;;;;;;;;;;;;;;;;;;5024932;28;19921;-66
2023/04/22 01:03:31;;;;;;;;;;;;;;;;;;5020674;28;19925;-68
2023/04/22 01:05:57;;;;;;;;;;;;;;;;;;5007915;28;20205;-68
2023/04/22 01:08:25;;;;;;;;;;;;;;;;;;5040968;28;20559;-68
2023/04/22 01:11:06;;;;;;;;;;;;;;;;;;5023150;28;19925;-67
2023/04/22 01:13:34;;;;;;;;;;;;;;;;;;5009755;28;19930;-67
2023/04/22 01:16:04;;;;;;;;;;;;;;;;;;5038173;28;19979;-68
2023/04/22 01:18:32;;;;;;;;;;;;;;;;;;5017002;28;19943;-68
2023/04/22 01:21:01;;;;;;;;;;;;;;;;;;5022199;28;19921;-68
2023/04/22 01:23:26;;;;;;;;;;;;;;;;;;5023813;28;20007;-68
2023/04/22 01:25:54;;;;;;;;;;;;;;;;;;5026107;28;19917;-68
2023/04/22 01:28:22;;;;;;;;;;;;;;;;;;5018795;28;19920;-67
2023/04/22 01:30:53;;;;;;;;;;;;;;;;;;5022340;28;20056;-67
2023/04/22 01:33:18;;;;;;;;;;;;;;;;;;5022056;28;19921;-69
2023/04/22 01:35:46;;;;;;;;;;;;;;;;;;5005560;28;20807;-65
2023/04/22 01:38:11;;;;;;;;;;;;;;;;;;5022707;28;19968;-67
2023/04/22 01:40:39;;;;;;;;;;;;;;;;;;5024639;28;20375;-68
2023/04/22 01:46:21;;;;;;;;;;;;;;;;;;5023843;28;19927;-67
2023/04/22 01:48:49;;;;;;;;;;;;;;;;;;5005447;28;19934;-67
2023/04/22 01:51:22;;;;;;;;;;;;;;;;;;5017196;28;20686;-66
2023/04/22 01:53:48;;;;;;;;;;;;;;;;;;5024895;28;19920;-67
2023/04/22 01:56:15;;;;;;;;;;;;;;;;;;5021460;28;20404;-67
2023/04/22 01:58:41;;;;;;;;;;;;;;;;;;5005192;28;19932;-67
2023/04/22 02:01:09;;;;;;;;;;;;;;;;;;5022885;28;19920;-67
2023/04/22 02:03:34;;;;;;;;;;;;;;;;;;5022657;28;19928;-66
2023/04/22 02:06:00;;;;;;;;;;;;;;;;;;5020888;28;20458;-67
2023/04/22 02:11:44;;;;;;;;;;;;;;;;;;5024548;28;19923;-67
2023/04/22 02:14:09;;;;;;;;;;;;;;;;;;5023195;28;20616;-67
2023/04/22 02:16:37;;;;;;;;;;;;;;;;;;5039300;28;20259;-67
2023/04/22 02:19:03;;;;;;;;;;;;;;;;;;5022635;28;20502;-67
2023/04/22 02:21:28;;;;;;;;;;;;;;;;;;5021510;28;20336;-67
2023/04/22 02:23:53;;;;;;;;;;;;;;;;;;5024079;28;19917;-68
2023/04/22 02:26:22;;;;;;;;;;;;;;;;;;5020161;28;20178;-67
2023/04/22 02:28:47;;;;;;;;;;;;;;;;;;5038314;28;20051;-67
2023/04/22 02:31:18;;;;;;;;;;;;;;;;;;5006746;28;19993;-66
2023/04/22 02:33:43;;;;;;;;;;;;;;;;;;5021488;28;19975;-69
2023/04/22 02:36:09;;;;;;;;;;;;;;;;;;5039321;28;20008;-67
2023/04/22 02:41:51;;;;;;;;;;;;;;;;;;5024303;28;19935;-67
2023/04/22 02:44:17;;;;;;;;;;;;;;;;;;5020589;28;19928;-66
2023/04/22 02:46:42;;;;;;;;;;;;;;;;;;5036758;28;20410;-67
2023/04/22 02:49:07;;;;;;;;;;;;;;;;;;5000218;28;21850;-67
2023/04/22 02:51:35;;;;;;;;;;;;;;;;;;5025382;28;20342;-67
2023/04/22 02:54:00;;;;;;;;;;;;;;;;;;5020222;28;20453;-66
2023/04/22 02:56:26;;;;;;;;;;;;;;;;;;5020997;28;20041;-66
2023/04/22 02:58:51;;;;;;;;;;;;;;;;;;5035210;28;20018;-67
2023/04/22 03:01:19;;;;;;;;;;;;;;;;;;5043359;28;20426;-67
2023/04/22 03:03:44;;;;;;;;;;;;;;;;;;5026713;28;19927;-66
2023/04/22 03:06:09;;;;;;;;;;;;;;;;;;5041799;28;19920;-66
2023/04/22 03:08:37;;;;;;;;;;;;;;;;;;5040838;28;19927;-66
2023/04/22 03:11:03;;;;;;;;;;;;;;;;;;5024696;28;19921;-66
2023/04/22 03:13:28;;;;;;;;;;;;;;;;;;5025872;28;19916;-67
2023/04/22 03:15:53;;;;;;;;;;;;;;;;;;5024876;28;20618;-66
2023/04/22 03:18:19;;;;;;;;;;;;;;;;;;5006723;28;20442;-67
2023/04/22 03:20:44;;;;;;;;;;;;;;;;;;5022140;28;19982;-66
2023/04/22 03:23:09;;;;;;;;;;;;;;;;;;5040369;28;19924;-66
2023/04/22 03:25:37;;;;;;;;;;;;;;;;;;5043286;28;19928;-66
2023/04/22 03:28:05;;;;;;;;;;;;;;;;;;5011297;28;19917;-66
2023/04/22 03:30:34;;;;;;;;;;;;;;;;;;5025783;28;19926;-67
2023/04/22 03:33:02;;;;;;;;;;;;;;;;;;5023027;28;19927;-67
2023/04/22 03:35:30;;;;;;;;;;;;;;;;;;5007129;28;19920;-67
2023/04/22 03:37:55;;;;;;;;;;;;;;;;;;5044585;28;19921;-67
2023/04/22 03:40:20;;;;;;;;;;;;;;;;;;5023871;28;19917;-68
2023/04/22 03:42:46;;;;;;;;;;;;;;;;;;5043205;28;20078;-67
2023/04/22 03:45:11;;;;;;;;;;;;;;;;;;5025529;28;19917;-66
2023/04/22 03:47:42;;;;;;;;;;;;;;;;;;5026448;28;20071;-67
2023/04/22 03:50:10;;;;;;;;;;;;;;;;;;5041026;28;19999;-67
2023/04/22 03:52:35;;;;;;;;;;;;;;;;;;5026189;28;19923;-68
2023/04/22 03:55:06;;;;;;;;;;;;;;;;;;5023292;28;20039;-66
2023/04/22 03:57:37;;;;;;;;;;;;;;;;;;5026566;28;20041;-67
2023/04/22 04:00:04;;;;;;;;;;;;;;;;;;5027402;28;19959;-66
2023/04/22 04:02:30;;;;;;;;;;;;;;;;;;5048275;28;19936;-66
2023/04/22 04:04:57;;;;;;;;;;;;;;;;;;5014674;28;20011;-66
2023/04/22 04:07:22;;;;;;;;;;;;;;;;;;5012743;28;20601;-66
2023/04/22 04:09:50;;;;;;;;;;;;;;;;;;5029003;28;20287;-66
2023/04/22 04:12:15;;;;;;;;;;;;;;;;;;5026931;28;20304;-67
2023/04/22 04:14:44;;;;;;;;;;;;;;;;;;5046492;28;20937;-67
2023/04/22 04:17:13;;;;;;;;;;;;;;;;;;5028388;28;19916;-67
2023/04/22 04:19:42;;;;;;;;;;;;;;;;;;5007594;28;20024;-66
2023/04/22 04:22:09;;;;;;;;;;;;;;;;;;5048148;28;19925;-67
2023/04/22 04:24:40;;;;;;;;;;;;;;;;;;5028216;28;20426;-67
2023/04/22 04:27:08;;;;;;;;;;;;;;;;;;5024421;28;21863;-67
2023/04/22 04:29:37;;;;;;;;;;;;;;;;;;5045716;28;19920;-64
2023/04/22 04:32:05;;;;;;;;;;;;;;;;;;5028500;28;19917;-67
2023/04/22 04:34:33;;;;;;;;;;;;;;;;;;5028022;28;19920;-67
2023/04/22 04:36:59;;;;;;;;;;;;;;;;;;5044307;28;19931;-66
2023/04/22 04:39:31;;;;;;;;;;;;;;;;;;5030676;28;19920;-67
2023/04/22 04:42:00;;;;;;;;;;;;;;;;;;5043895;28;19967;-67
2023/04/22 04:44:26;;;;;;;;;;;;;;;;;;5046420;28;20159;-67
2023/04/22 04:46:53;;;;;;;;;;;;;;;;;;5028275;28;19958;-68
2023/04/22 04:49:19;;;;;;;;;;;;;;;;;;5028428;28;20163;-67
2023/04/22 04:51:47;;;;;;;;;;;;;;;;;;5045001;28;20060;-67
2023/04/22 04:54:18;;;;;;;;;;;;;;;;;;5028568;28;19917;-67
2023/04/22 04:56:46;;;;;;;;;;;;;;;;;;5046877;28;20509;-66
2023/04/22 04:59:14;;;;;;;;;;;;;;;;;;5046800;28;20044;-66
2023/04/22 05:01:40;;;;;;;;;;;;;;;;;;5045144;28;21196;-67
2023/04/22 05:04:05;;;;;;;;;;;;;;;;;;5026876;28;19921;-67
2023/04/22 05:06:31;;;;;;;;;;;;;;;;;;5027989;28;19944;-66
2023/04/22 05:08:59;;;;;;;;;;;;;;;;;;5043409;28;19932;-67
2023/04/22 05:11:31;;;;;;;;;;;;;;;;;;5025177;28;19920;-68
2023/04/22 05:14:02;;;;;;;;;;;;;;;;;;5023443;28;19927;-67
2023/04/22 05:16:39;;;;;;;;;;;;;;;;;;5031855;28;20307;-68
2023/04/22 05:19:14;;;;;;;;;;;;;;;;;;5031121;28;19925;-68
2023/04/22 05:21:49;;;;;;;;;;;;;;;;;;5053764;28;19924;-66
2023/04/22 05:24:17;;;;;;;;;;;;;;;;;;5052325;28;19920;-68
2023/04/22 05:26:48;;;;;;;;;;;;;;;;;;5033900;28;19970;-66
2023/04/22 05:29:18;;;;;;;;;;;;;;;;;;5019219;28;20433;-67
2023/04/22 05:31:47;;;;;;;;;;;;;;;;;;5050130;28;20019;-66
2023/04/22 05:34:14;;;;;;;;;;;;;;;;;;5053718;28;19923;-67
2023/04/22 05:36:52;;;;;;;;;;;;;;;;;;5029388;28;21404;-68
2023/04/22 05:39:24;;;;;;;;;;;;;;;;;;5020601;28;20574;-67
2023/04/22 05:41:53;;;;;;;;;;;;;;;;;;5038224;28;20436;-67
2023/04/22 05:44:23;;;;;;;;;;;;;;;;;;5053659;28;20103;-67
2023/04/22 05:46:52;;;;;;;;;;;;;;;;;;5053441;28;19925;-68
2023/04/22 05:49:26;;;;;;;;;;;;;;;;;;5036470;28;19920;-68
2023/04/22 05:52:05;;;;;;;;;;;;;;;;;;5054983;28;19920;-68
2023/04/22 05:54:49;;;;;;;;;;;;;;;;;;5050397;28;20176;-68
2023/04/22 05:57:18;;;;;;;;;;;;;;;;;;5023781;28;20279;-68
2023/04/22 05:59:46;;;;;;;;;;;;;;;;;;5048558;28;20001;-68
2023/04/22 06:02:14;;;;;;;;;;;;;;;;;;5017909;28;20380;-69
2023/04/22 06:04:40;;;;;;;;;;;;;;;;;;5046977;28;19924;-69
2023/04/22 06:07:09;;;;;;;;;;;;;;;;;;5034803;28;19917;-69
2023/04/22 06:09:35;;;;;;;;;;;;;;;;;;5031980;28;19921;-69
2023/04/22 06:12:01;;;;;;;;;;;;;;;;;;5033758;28;20718;-69
2023/04/22 06:14:27;;;;;;;;;;;;;;;;;;5034903;28;19924;-69
2023/04/22 06:16:53;;;;;;;;;;;;;;;;;;5032174;28;20388;-70
2023/04/22 06:19:23;;;;;;;;;;;;;;;;;;5049066;28;19930;-68
2023/04/22 06:21:48;;;;;;;;;;;;;;;;;;5032348;28;20395;-70
2023/04/22 06:24:17;;;;;;;;;;;;;;;;;;5037169;28;20030;-70
2023/04/22 06:26:52;;;;;;;;;;;;;;;;;;5019552;28;19970;-69
2023/04/22 06:29:43;;;;;;;;;;;;;;;;;;5028708;28;19924;-68
2023/04/22 06:32:20;;;;;;;;;;;;;;;;;;5036835;28;19928;-70
2023/04/22 06:34:49;;;;;;;;;;;;;;;;;;5037405;28;19917;-70
2023/04/22 06:37:15;;;;;;;;;;;;;;;;;;5035038;28;20065;-70
2023/04/22 06:42:32;;;;;;;;;;;;;;;;;;5039287;28;19925;-70
2023/04/22 06:44:58;;;;;;;;;;;;;;;;;;5033397;28;19912;-70
2023/04/22 06:47:24;;;;;;;;;;;;;;;;;;5033956;28;19931;-69
2023/04/22 06:49:53;;;;;;;;;;;;;;;;;;5036074;28;19916;-70
2023/04/22 06:52:21;;;;;;;;;;;;;;;;;;5028562;28;19928;-71
2023/04/22 06:54:46;;;;;;;;;;;;;;;;;;5051911;28;20289;-70
2023/04/22 06:57:12;;;;;;;;;;;;;;;;;;5032164;28;20166;-69
2023/04/22 06:59:37;;;;;;;;;;;;;;;;;;5032910;28;19928;-69
2023/04/22 07:02:03;;;;;;;;;;;;;;;;;;5016511;28;22141;-69
2023/04/22 07:04:30;;;;;;;;;;;;;;;;;;5038671;28;19975;-68
2023/04/22 07:06:55;;;;;;;;;;;;;;;;;;5051160;28;19921;-68
2023/04/22 07:09:28;;;;;;;;;;;;;;;;;;5031879;28;19923;-69
2023/04/22 07:11:53;;;;;;;;;;;;;;;;;;5032273;28;19991;-68
2023/04/22 07:14:19;;;;;;;;;;;;;;;;;;5016912;28;19921;-69
2023/04/22 07:16:45;;;;;;;;;;;;;;;;;;5033814;28;19916;-69
2023/04/22 07:19:10;;;;;;;;;;;;;;;;;;5013621;28;19921;-68
2023/04/22 07:21:38;;;;;;;;;;;;;;;;;;5033468;28;19969;-69
2023/04/22 07:24:03;;;;;;;;;;;;;;;;;;5035068;28;19920;-69
2023/04/22 07:26:37;;;;;;;;;;;;;;;;;;5019824;28;20020;-69
2023/04/22 07:29:20;;;;;;;;;;;;;;;;;;5020742;28;19923;-69
2023/04/22 07:31:48;;;;;;;;;;;;;;;;;;5030543;28;19920;-69
2023/04/22 07:34:31;;;;;;;;;;;;;;;;;;5034217;28;20197;-69
2023/04/22 07:37:34;;;;;;;;;;;;;;;;;;4984588;28;19928;-69
2023/04/22 07:40:10;;;;;;;;;;;;;;;;;;5052810;28;20372;-70
2023/04/22 07:42:40;;;;;;;;;;;;;;;;;;5021248;28;19955;-70
2023/04/22 07:45:13;;;;;;;;;;;;;;;;;;5022489;28;20376;-70
2023/04/22 07:47:39;;;;;;;;;;;;;;;;;;5036071;28;19960;-70
2023/04/22 07:50:24;;;;;;;;;;;;;;;;;;4982131;28;19921;-70
2023/04/22 07:52:54;;;;;;;;;;;;;;;;;;5051950;28;20289;-70
2023/04/22 07:55:22;;;;;;;;;;;;;;;;;;5055145;28;19913;-70
2023/04/22 07:58:05;;;;;;;;;;;;;;;;;;5023631;28;20375;-69
2023/04/22 08:00:38;;;;;;;;;;;;;;;;;;5037420;28;20021;-70
2023/04/22 08:03:11;;;;;;;;;;;;;;;;;;5020189;28;19950;-69
2023/04/22 08:05:42;;;;;;;;;;;;;;;;;;5024189;28;19932;-70
2023/04/22 08:08:18;;;;;;;;;;;;;;;;;;5036843;28;20397;-70
2023/04/22 08:10:58;;;;;;;;;;;;;;;;;;5053187;28;19923;-71
2023/04/22 08:13:26;;;;;;;;;;;;;;;;;;5037659;28;19916;-70
2023/04/22 08:15:51;;;;;;;;;;;;;;;;;;5036699;28;20070;-70
2023/04/22 08:18:17;;;;;;;;;;;;;;;;;;5053327;28;20178;-70
2023/04/22 08:20:45;;;;;;;;;;;;;;;;;;5033749;28;20002;-70
2023/04/22 08:23:13;;;;;;;;;;;;;;;;;;5035836;28;19959;-72
2023/04/22 08:25:47;;;;;;;;;;;;;;;;;;5040118;28;19921;-71
2023/04/22 08:28:13;;;;;;;;;;;;;;;;;;5039959;28;19920;-71
2023/04/22 08:30:48;;;;;;;;;;;;;;;;;;5055819;28;20098;-70
2023/04/22 08:33:15;;;;;;;;;;;;;;;;;;5038391;28;20433;-71
2023/04/22 08:39:24;;;;;;;;;;;;;;;;;;;;;
2023/04/22 08:42:26;;;;;;;;;;;;;;;;;;;;;
2023/04/22 08:45:03;;;;;;;;;;;;;;;;;;4958054;28;20427;-72
2023/04/22 08:47:49;;;;;;;;;;;;;;;;;;4922187;29;19962;-71
2023/04/22 08:50:17;;;;;;;;;;;;;;;;;;4952423;28;19921;-72
2023/04/22 08:53:01;;;;;;;;;;;;;;;;;;;;;
2023/04/22 08:55:48;;;;;;;;;;;;;;;;;;;;;
2023/04/22 08:58:16;;;;;;;;;;;;;;;;;;5036618;28;19917;-71
2023/04/22 09:00:41;;;;;;;;;;;;;;;;;;5053427;28;19974;-71
2023/04/22 09:03:16;;;;;;;;;;;;;;;;;;5036999;28;20291;-72
2023/04/22 09:05:59;;;;;;;;;;;;;;;;;;5022379;28;20007;-70
2023/04/22 09:08:53;;;;;;;;;;;;;;;;;;;;;
2023/04/22 09:11:44;;;;;;;;;;;;;;;;;;5035958;28;20086;-71
2023/04/22 09:14:41;;;;;;;;;;;;;;;;;;5028257;28;19989;-72
2023/04/22 09:17:38;;;;;;;;;;;;;;;;;;5037965;28;19921;-70
2023/04/22 09:20:36;;;;;;;;;;;;;;;;;;;;;
2023/04/22 09:23:20;;;;;;;;;;;;;;;;;;;;;
2023/04/22 09:26:02;;;;;;;;;;;;;;;;;;5034830;28;19944;-71
2023/04/22 09:28:48;;;;;;;;;;;;;;;;;;4996084;28;19917;-71
2023/04/22 09:31:45;;;;;;;;;;;;;;;;;;5032182;28;19921;-71
2023/04/22 09:34:31;;;;;;;;;;;;;;;;;;5026691;28;19921;-71
2023/04/22 09:37:05;;;;;;;;;;;;;;;;;;5024361;28;19920;-71
2023/04/22 09:39:39;;;;;;;;;;;;;;;;;;5029861;28;19917;-71
2023/04/22 09:42:10;;;;;;;;;;;;;;;;;;5036134;28;20342;-70
2023/04/22 09:44:36;;;;;;;;;;;;;;;;;;5034437;28;19917;-71
2023/04/22 09:47:11;;;;;;;;;;;;;;;;;;5018056;28;20388;-69
2023/04/22 09:49:46;;;;;;;;;;;;;;;;;;5021501;28;20528;-71
2023/04/22 09:52:12;;;;;;;;;;;;;;;;;;5020721;28;19932;-70
2023/04/22 09:54:41;;;;;;;;;;;;;;;;;;5026041;28;19924;-70
2023/04/22 09:57:12;;;;;;;;;;;;;;;;;;5020707;28;20244;-71
2023/04/22 09:59:40;;;;;;;;;;;;;;;;;;5024942;28;19932;-70
2023/04/22 10:02:06;;;;;;;;;;;;;;;;;;5007283;28;20008;-71
2023/04/22 10:04:34;;;;;;;;;;;;;;;;;;5004575;28;19956;-70
2023/04/22 10:07:01;;;;;;;;;;;;;;;;;;4983925;28;20008;-71
2023/04/22 10:09:27;;;;;;;;;;;;;;;;;;5017995;28;20372;-72
2023/04/22 10:11:52;;;;;;;;;;;;;;;;;;4987796;28;19944;-70
2023/04/22 10:14:18;;;;;;;;;;;;;;;;;;5013220;28;19917;-70
2023/04/22 10:16:48;;;;;;;;;;;;;;;;;;5018873;28;20021;-67
2023/04/22 10:19:14;;;;;;;;;;;;;;;;;;5023900;28;20161;-70
2023/04/22 10:21:40;;;;;;;;;;;;;;;;;;5024971;28;20311;-70
2023/04/22 10:24:05;;;;;;;;;;;;;;;;;;5000985;28;19948;-69
2023/04/22 10:26:31;;;;;;;;;;;;;;;;;;5004656;28;19918;-69
2023/04/22 10:28:57;;;;;;;;;;;;;;;;;;5018599;28;20091;-71
2023/04/22 10:31:22;;;;;;;;;;;;;;;;;;5015439;28;19921;-70
2023/04/22 10:33:48;;;;;;;;;;;;;;;;;;5017877;28;19932;-71
2023/04/22 10:36:14;;;;;;;;;;;;;;;;;;4986701;28;19930;-70
2023/04/22 10:38:39;;;;;;;;;;;;;;;;;;5001610;28;19927;-70
2023/04/22 10:41:05;;;;;;;;;;;;;;;;;;5018408;28;19917;-70
2023/04/22 10:43:30;;;;;;;;;;;;;;;;;;5000805;28;19920;-70
2023/04/22 10:45:56;;;;;;;;;;;;;;;;;;5006409;28;19917;-70
2023/04/22 10:48:22;;;;;;;;;;;;;;;;;;4998449;28;19998;-68
2023/04/22 10:50:47;;;;;;;;;;;;;;;;;;5005827;28;19920;-69
2023/04/22 10:53:13;;;;;;;;;;;;;;;;;;5020641;28;19977;-70
2023/04/22 10:55:38;;;;;;;;;;;;;;;;;;5020867;28;19921;-70
2023/04/22 10:58:04;;;;;;;;;;;;;;;;;;5002979;28;20132;-70
2023/04/22 11:00:32;;;;;;;;;;;;;;;;;;5032377;28;20521;-71
2023/04/22 11:03:02;;;;;;;;;;;;;;;;;;5021586;28;19917;-68
2023/04/22 11:05:27;;;;;;;;;;;;;;;;;;5021302;28;19916;-70
2023/04/22 11:07:54;;;;;;;;;;;;;;;;;;5023931;28;19917;-69
2023/04/22 11:10:20;;;;;;;;;;;;;;;;;;5020145;28;19921;-70
2023/04/22 11:12:45;;;;;;;;;;;;;;;;;;5015409;28;20752;-70
2023/04/22 11:15:11;;;;;;;;;;;;;;;;;;4980550;28;19920;-70
2023/04/22 11:17:36;;;;;;;;;;;;;;;;;;5015668;28;19987;-70
2023/04/22 11:20:02;;;;;;;;;;;;;;;;;;5017012;28;19921;-70
2023/04/22 11:22:27;;;;;;;;;;;;;;;;;;5016916;28;19923;-70
2023/04/22 11:24:55;;;;;;;;;;;;;;;;;;5017597;28;19921;-67
2023/04/22 11:27:25;;;;;;;;;;;;;;;;;;5035635;28;19999;-70
2023/04/22 11:29:51;;;;;;;;;;;;;;;;;;5002323;28;19931;-70
2023/04/22 11:32:18;;;;;;;;;;;;;;;;;;5018956;28;20614;-70
2023/04/22 11:34:45;;;;;;;;;;;;;;;;;;5036105;28;19920;-68
2023/04/22 11:37:13;;;;;;;;;;;;;;;;;;5023313;28;19916;-70
2023/04/22 11:39:38;;;;;;;;;;;;;;;;;;5024622;28;20501;-69
2023/04/22 11:42:06;;;;;;;;;;;;;;;;;;5025039;28;19921;-68
2023/04/22 11:44:32;;;;;;;;;;;;;;;;;;5018421;28;20318;-69
2023/04/22 11:46:57;;;;;;;;;;;;;;;;;;5024463;28;19924;-69
2023/04/22 11:49:25;;;;;;;;;;;;;;;;;;5022555;28;20057;-70
2023/04/22 11:51:50;;;;;;;;;;;;;;;;;;5017380;28;19920;-69
2023/04/22 11:54:18;;;;;;;;;;;;;;;;;;5017289;28;19917;-68
2023/04/22 11:56:44;;;;;;;;;;;;;;;;;;5020024;28;20281;-69
2023/04/22 11:59:10;;;;;;;;;;;;;;;;;;5019050;28;19928;-69
2023/04/22 12:01:35;;;;;;;;;;;;;;;;;;5023011;28;19977;-69
2023/04/22 12:04:01;;;;;;;;;;;;;;;;;;5021645;28;20531;-69
2023/04/22 12:06:28;;;;;;;;;;;;;;;;;;5022706;28;19991;-70
2023/04/22 12:08:54;;;;;;;;;;;;;;;;;;5036026;28;20468;-69
2023/04/22 12:11:20;;;;;;;;;;;;;;;;;;5019100;28;19916;-68
2023/04/22 12:13:46;;;;;;;;;;;;;;;;;;5021384;28;19935;-66
2023/04/22 12:16:14;;;;;;;;;;;;;;;;;;5021275;28;20385;-68
2023/04/22 12:18:40;;;;;;;;;;;;;;;;;;5003399;28;19927;-64
2023/04/22 12:21:05;;;;;;;;;;;;;;;;;;5038095;28;19928;-68
2023/04/22 12:23:31;;;;;;;;;;;;;;;;;;5023822;28;20411;-68
2023/04/22 12:26:09;;;;;;;;;;;;;;;;;;5038967;28;19967;-68
2023/04/22 12:29:20;;;;;;;;;;;;;;;;;;5007893;28;19917;-68
2023/04/22 12:31:49;;;;;;;;;;;;;;;;;;5045217;28;19920;-68
2023/04/22 12:34:15;;;;;;;;;;;;;;;;;;5031093;28;20189;-67
2023/04/22 12:36:53;;;;;;;;;;;;;;;;;;5031740;28;19921;-68
2023/04/22 12:39:25;;;;;;;;;;;;;;;;;;5043508;28;19920;-67
2023/04/22 12:41:51;;;;;;;;;;;;;;;;;;5014141;28;19940;-68
2023/04/22 12:44:17;;;;;;;;;;;;;;;;;;5027944;28;20092;-67
2023/04/22 12:46:42;;;;;;;;;;;;;;;;;;5027367;28;19913;-68
2023/04/22 12:49:08;;;;;;;;;;;;;;;;;;5030905;28;20018;-68
2023/04/22 12:51:37;;;;;;;;;;;;;;;;;;5028297;28;19921;-68
2023/04/22 12:54:25;;;;;;;;;;;;;;;;;;5043460;28;20164;-67
2023/04/22 12:56:53;;;;;;;;;;;;;;;;;;5044041;28;19924;-67
2023/04/22 12:59:28;;;;;;;;;;;;;;;;;;5042647;28;19932;-67
2023/04/22 13:01:54;;;;;;;;;;;;;;;;;;5025389;28;20247;-67
2023/04/22 13:04:19;;;;;;;;;;;;;;;;;;5045269;28;20020;-68
2023/04/22 13:06:45;;;;;;;;;;;;;;;;;;5032508;28;19920;-67
2023/04/22 13:09:11;;;;;;;;;;;;;;;;;;5029528;28;20456;-68
2023/04/22 13:11:48;;;;;;;;;;;;;;;;;;;;;
2023/04/22 13:14:23;;;;;;;;;;;;;;;;;;5022267;28;19925;-68
2023/04/22 13:16:55;;;;;;;;;;;;;;;;;;5039782;28;19920;-68
2023/04/22 13:19:22;;;;;;;;;;;;;;;;;;5030327;28;19916;-68
2023/04/22 13:21:51;;;;;;;;;;;;;;;;;;5029271;28;19944;-67
2023/04/22 13:24:20;;;;;;;;;;;;;;;;;;5042207;28;19921;-68
2023/04/22 13:26:45;;;;;;;;;;;;;;;;;;5025433;28;20608;-67
2023/04/22 13:29:14;;;;;;;;;;;;;;;;;;5040170;28;19917;-68
2023/04/22 13:31:40;;;;;;;;;;;;;;;;;;5026812;28;19920;-67
2023/04/22 13:34:08;;;;;;;;;;;;;;;;;;5025879;28;20442;-67
2023/04/22 13:36:33;;;;;;;;;;;;;;;;;;5042413;28;19921;-68
2023/04/22 13:39:22;;;;;;;;;;;;;;;;;;5032024;28;20292;-68
2023/04/22 13:41:45;;;;;;;;;;;;;;;;;;5026086;28;19960;-67
2023/04/22 13:44:16;;;;;;;;;;;;;;;;;;5044567;28;19987;-68
2023/04/22 13:46:47;;;;;;;;;;;;;;;;;;5024979;28;19921;-67
2023/04/22 13:49:13;;;;;;;;;;;;;;;;;;5025500;28;19917;-67
2023/04/22 13:51:39;;;;;;;;;;;;;;;;;;5044246;28;19982;-68
2023/04/22 13:54:04;;;;;;;;;;;;;;;;;;5030797;28;19924;-67
2023/04/22 13:56:30;;;;;;;;;;;;;;;;;;5030356;28;20514;-66
2023/04/22 13:58:55;;;;;;;;;;;;;;;;;;5032917;28;20045;-66
2023/04/22 14:01:21;;;;;;;;;;;;;;;;;;5048543;28;20287;-68
2023/04/22 14:03:52;;;;;;;;;;;;;;;;;;5032160;28;19989;-68
2023/04/22 14:06:18;;;;;;;;;;;;;;;;;;5025854;28;19921;-66
2023/04/22 14:08:46;;;;;;;;;;;;;;;;;;5031059;28;19916;-68
2023/04/22 14:11:12;;;;;;;;;;;;;;;;;;5010883;28;19931;-68
2023/04/22 14:13:41;;;;;;;;;;;;;;;;;;5049249;28;20661;-67
2023/04/22 14:16:12;;;;;;;;;;;;;;;;;;5029184;28;20223;-68
2023/04/22 14:18:40;;;;;;;;;;;;;;;;;;5029967;28;19916;-68
2023/04/22 14:21:07;;;;;;;;;;;;;;;;;;5043133;28;19924;-68
2023/04/22 14:23:36;;;;;;;;;;;;;;;;;;5031706;28;19941;-67
2023/04/22 14:32:52;;;;;;;;;;;;;;;;;;5020093;28;20297;-68
2023/04/22 14:48:15;;;;;;;;;;;;;;;;;;4862765;29;19919;-69
2023/04/22 15:00:58;;;;;;;;;;;;;;;;;;4739505;29;19979;-68
2023/04/22 15:13:38;;;;;;;;;;;;;;;;;;4730633;30;19957;-71
2023/04/22 15:23:22;;;;;;;;;;;;;;;;;;5084597;27;20044;-63
2023/04/22 15:25:58;;;;;;;;;;;;;;;;;;5066730;28;20003;-63
2023/04/22 15:28:39;;;;;;;;;;;;;;;;;;5073261;28;19920;-65
2023/04/22 15:31:38;;;;;;;;;;;;;;;;;;5048109;28;20074;-65
2023/04/22 15:34:07;;;;;;;;;;;;;;;;;;5066567;28;20800;-64
2023/04/22 15:36:50;;;;;;;;;;;;;;;;;;5049436;28;19920;-65
2023/04/22 15:39:27;;;;;;;;;;;;;;;;;;5065241;28;20007;-64
2023/04/22 15:42:10;;;;;;;;;;;;;;;;;;5086163;28;20390;-64
2023/04/22 15:44:43;;;;;;;;;;;;;;;;;;5072446;28;19927;-64
2023/04/22 15:47:30;;;;;;;;;;;;;;;;;;5085202;28;19944;-63
2023/04/22 15:50:34;;;;;;;;;;;;;;;;;;5044944;28;19947;-65
2023/04/22 15:53:20;;;;;;;;;;;;;;;;;;5084676;28;20394;-65
2023/04/22 15:56:13;;;;;;;;;;;;;;;;;;5071481;28;19923;-63
2023/04/22 15:58:49;;;;;;;;;;;;;;;;;;5086407;28;20291;-63
2023/04/22 16:01:39;;;;;;;;;;;;;;;;;;5067972;28;19928;-64
2023/04/22 16:04:05;;;;;;;;;;;;;;;;;;5082433;28;20453;-64
2023/04/22 16:06:41;;;;;;;;;;;;;;;;;;5067278;28;19920;-63
2023/04/22 16:09:22;;;;;;;;;;;;;;;;;;5063035;28;19920;-64
2023/04/22 16:11:54;;;;;;;;;;;;;;;;;;5066871;28;19920;-63
2023/04/22 16:14:29;;;;;;;;;;;;;;;;;;5067568;28;19915;-63
2023/04/22 16:17:19;;;;;;;;;;;;;;;;;;5081279;28;20196;-63
2023/04/22 16:19:48;;;;;;;;;;;;;;;;;;5057298;28;19916;-63
2023/04/22 16:22:13;;;;;;;;;;;;;;;;;;5048092;28;20307;-63
2023/04/22 16:24:52;;;;;;;;;;;;;;;;;;5078019;28;19919;-63
2023/04/22 16:27:21;;;;;;;;;;;;;;;;;;5082584;28;20000;-63
2023/04/22 16:29:50;;;;;;;;;;;;;;;;;;5068245;28;19950;-62
2023/04/22 16:32:15;;;;;;;;;;;;;;;;;;5042676;28;20257;-63
2023/04/22 16:34:45;;;;;;;;;;;;;;;;;;5063380;28;20325;-62
2023/04/22 16:37:11;;;;;;;;;;;;;;;;;;5066383;28;19954;-62
2023/04/22 16:39:50;;;;;;;;;;;;;;;;;;5068018;28;19963;-62
2023/04/22 16:42:22;;;;;;;;;;;;;;;;;;5066934;28;19924;-62
2023/04/22 16:44:58;;;;;;;;;;;;;;;;;;5053744;28;19916;-62
2023/04/22 16:47:28;;;;;;;;;;;;;;;;;;5039886;28;19916;-62
2023/04/22 16:50:04;;;;;;;;;;;;;;;;;;5064928;28;20001;-63
2023/04/22 16:52:36;;;;;;;;;;;;;;;;;;5032176;28;19981;-62
2023/04/22 16:55:07;;;;;;;;;;;;;;;;;;5068589;28;19920;-63
2023/04/22 16:57:40;;;;;;;;;;;;;;;;;;5052104;28;19972;-62
2023/04/22 17:00:09;;;;;;;;;;;;;;;;;;5040391;28;19928;-62
2023/04/22 17:02:38;;;;;;;;;;;;;;;;;;5050654;28;20463;-62
2023/04/22 17:05:18;;;;;;;;;;;;;;;;;;5055549;28;19981;-62
2023/04/22 17:07:54;;;;;;;;;;;;;;;;;;5068954;28;20022;-63
2023/04/22 17:10:27;;;;;;;;;;;;;;;;;;5055916;28;19927;-62
2023/04/22 17:13:07;;;;;;;;;;;;;;;;;;5052051;28;19928;-62
2023/04/22 17:15:42;;;;;;;;;;;;;;;;;;5013706;28;19976;-63
2023/04/22 17:18:11;;;;;;;;;;;;;;;;;;5062076;28;20019;-63
2023/04/22 17:20:38;;;;;;;;;;;;;;;;;;5033333;28;19928;-62
2023/04/22 17:23:10;;;;;;;;;;;;;;;;;;5039117;28;19928;-62
2023/04/22 17:25:38;;;;;;;;;;;;;;;;;;5040948;28;20401;-62
2023/04/22 17:28:16;;;;;;;;;;;;;;;;;;5041240;28;19920;-63
2023/04/22 17:30:44;;;;;;;;;;;;;;;;;;5048851;28;19959;-62
2023/04/22 17:33:30;;;;;;;;;;;;;;;;;;5079279;28;19916;-63
2023/04/22 17:35:58;;;;;;;;;;;;;;;;;;5043578;28;20367;-63
2023/04/22 17:38:27;;;;;;;;;;;;;;;;;;5054256;28;19942;-63
2023/04/22 17:40:53;;;;;;;;;;;;;;;;;;5001328;28;19920;-62
2023/04/22 17:43:18;;;;;;;;;;;;;;;;;;5055340;28;19920;-62
2023/04/22 17:45:43;;;;;;;;;;;;;;;;;;5026131;28;19966;-62
2023/04/22 17:48:08;;;;;;;;;;;;;;;;;;5027301;28;19925;-63
2023/04/22 17:50:34;;;;;;;;;;;;;;;;;;5021643;28;19931;-63
2023/04/22 17:52:59;;;;;;;;;;;;;;;;;;5038991;28;20456;-62
2023/04/22 17:55:25;;;;;;;;;;;;;;;;;;5031820;28;21773;-63
2023/04/22 17:57:50;;;;;;;;;;;;;;;;;;5028256;28;20521;-63
2023/04/22 18:00:20;;;;;;;;;;;;;;;;;;5054576;28;19916;-64
2023/04/22 18:02:48;;;;;;;;;;;;;;;;;;5027828;28;19924;-65
2023/04/22 18:05:13;;;;;;;;;;;;;;;;;;5055969;28;20157;-65
2023/04/22 18:07:39;;;;;;;;;;;;;;;;;;5036778;28;19916;-65
2023/04/22 18:10:09;;;;;;;;;;;;;;;;;;5022296;28;19920;-64
2023/04/22 18:12:34;;;;;;;;;;;;;;;;;;5028017;28;19920;-65
2023/04/22 18:15:00;;;;;;;;;;;;;;;;;;5028163;28;20477;-66
2023/04/22 18:17:25;;;;;;;;;;;;;;;;;;5038414;28;19920;-65